Brightway — 9V8755 — position and weather

sailwx.info

Track history (hours):
 
Tides and Currents Weather Stations Pressure Air Temp Water Temp Dewpoint Dewpoint Depression Visibility Wind Speed Wind Dir Waves Ship Positions

Brightway

Last reported at 2015-Feb-10 13:24 UTC. Time now 2015-Mar-05 20:18 UTC.
Position N 35°59' W 005°31'.
Warning: this ship's position is 23 days out of date.

Length 274 m; draft 9.5 m.

Type: Tanker. MMSI: 566422000.

Date/timePositionNaut miles runAvg speedWind from/ knotsBaromVisibWave heightAir tempDewpointWater temp
2015-Feb-10 13:24N 35°59' W 005°31'8 9.8
2015-Feb-10 12:34N 36°04' W 005°23'5 5.3
2015-Feb-10 11:34N 36°09' W 005°25'0 0.0
2015-Feb-10 10:34N 36°09' W 005°25'0 0.0
2015-Feb-10 09:30N 36°09' W 005°25'0 0.0
2015-Feb-10 08:33N 36°09' W 005°25'0 0.0
2015-Feb-10 07:33N 36°09' W 005°25'0 0.1
2015-Feb-10 06:34N 36°09' W 005°25'0 0.0
2015-Feb-10 05:31N 36°09' W 005°25'0 0.0
2015-Feb-10 04:33N 36°09' W 005°25'0 0.0
2015-Feb-10 03:32N 36°09' W 005°25'0 0.0
2015-Feb-10 02:33N 36°09' W 005°25'0 0.0
2015-Feb-10 01:33N 36°09' W 005°25'0 0.1
2015-Feb-10 00:31N 36°09' W 005°25'0 0.0
2015-Feb-09 23:33N 36°09' W 005°25'0 0.0
2015-Feb-09 22:30N 36°09' W 005°25'0 0.0
2015-Feb-09 21:30N 36°09' W 005°25'0 0.3
2015-Feb-09 20:33N 36°10' W 005°25'0 0.0
2015-Feb-09 02:33N 36°10' W 005°25'3 2.9
2015-Feb-09 01:33N 36°07' W 005°23'5 5.0
2015-Feb-09 00:33N 36°03' W 005°19'1 0.5
2015-Feb-08 23:33N 36°04' W 005°20'5 5.2
2015-Feb-08 22:33N 36°04' W 005°13'  
2015-Feb-05 07:07N 36°47' E 012°56'712.1
2015-Feb-05 06:33N 36°45' E 013°04'1412.3
2015-Feb-05 05:27N 36°40' E 013°20'1212.3
2015-Feb-05 04:28N 36°36' E 013°34'1112.5
2015-Feb-05 03:33N 36°32' E 013°47'1212.4
2015-Feb-05 02:33N 36°28' E 014°02'1312.3
2015-Feb-05 01:31N 36°23' E 014°16'1312.2
2015-Feb-05 00:28N 36°18' E 014°31'1112.0
2015-Feb-04 23:33N 36°14' E 014°44'1212.0
2015-Feb-04 22:33N 36°09' E 014°58'1212.0
2015-Feb-04 21:33N 36°05' E 015°11'1211.9
2015-Feb-04 20:33N 36°00' E 015°25'1212.0
2015-Feb-04 19:33N 35°56' E 015°39'1311.9
2015-Feb-04 18:29N 35°51' E 015°53'1111.8
2015-Feb-04 17:33N 35°47' E 016°06'  
Track history (hours):
 
Tides and Currents Weather Stations Pressure Air Temp Water Temp Dewpoint Dewpoint Depression Visibility Wind Speed Wind Dir Waves Ship Positions

Brightway

Last reported at 2015-Feb-10 13:24 UTC. Time now 2015-Mar-05 20:18 UTC.
Position N 35°59' W 005°31'.
Warning: this ship's position is 23 days out of date.

Length 274 m; draft 9.5 m.

Type: Tanker. MMSI: 566422000.

Date/timePositionNaut miles runAvg speedWind from/ knotsBaromVisibWave heightAir tempDewpointWater temp
2015-Feb-10 13:24N 35°59' W 005°31'8 9.8
2015-Feb-10 12:34N 36°04' W 005°23'5 5.3
2015-Feb-10 11:34N 36°09' W 005°25'0 0.0
2015-Feb-10 10:34N 36°09' W 005°25'0 0.0
2015-Feb-10 09:30N 36°09' W 005°25'0 0.0
2015-Feb-10 08:33N 36°09' W 005°25'0 0.0
2015-Feb-10 07:33N 36°09' W 005°25'0 0.1
2015-Feb-10 06:34N 36°09' W 005°25'0 0.0
2015-Feb-10 05:31N 36°09' W 005°25'0 0.0
2015-Feb-10 04:33N 36°09' W 005°25'0 0.0
2015-Feb-10 03:32N 36°09' W 005°25'0 0.0
2015-Feb-10 02:33N 36°09' W 005°25'0 0.0
2015-Feb-10 01:33N 36°09' W 005°25'0 0.1
2015-Feb-10 00:31N 36°09' W 005°25'0 0.0
2015-Feb-09 23:33N 36°09' W 005°25'0 0.0
2015-Feb-09 22:30N 36°09' W 005°25'0 0.0
2015-Feb-09 21:30N 36°09' W 005°25'0 0.3
2015-Feb-09 20:33N 36°10' W 005°25'0 0.0
2015-Feb-09 02:33N 36°10' W 005°25'3 2.9
2015-Feb-09 01:33N 36°07' W 005°23'5 5.0
2015-Feb-09 00:33N 36°03' W 005°19'1 0.5
2015-Feb-08 23:33N 36°04' W 005°20'5 5.2
2015-Feb-08 22:33N 36°04' W 005°13'  
2015-Feb-05 07:07N 36°47' E 012°56'712.1
2015-Feb-05 06:33N 36°45' E 013°04'1412.3
2015-Feb-05 05:27N 36°40' E 013°20'1212.3
2015-Feb-05 04:28N 36°36' E 013°34'1112.5
2015-Feb-05 03:33N 36°32' E 013°47'1212.4
2015-Feb-05 02:33N 36°28' E 014°02'1312.3
2015-Feb-05 01:31N 36°23' E 014°16'1312.2
2015-Feb-05 00:28N 36°18' E 014°31'1112.0
2015-Feb-04 23:33N 36°14' E 014°44'1212.0
2015-Feb-04 22:33N 36°09' E 014°58'1212.0
2015-Feb-04 21:33N 36°05' E 015°11'1211.9
2015-Feb-04 20:33N 36°00' E 015°25'1212.0
2015-Feb-04 19:33N 35°56' E 015°39'1311.9
2015-Feb-04 18:29N 35°51' E 015°53'1111.8
2015-Feb-04 17:33N 35°47' E 016°06'  

Dump ship's entire track history